Campbell AAF (Fort Campbell) Air Field Fort Campbell, Hopkinsville US
ICAO: KHOP
IATA: HOP
Category: Medium
Scheduled Services: No

Elevation: 573 ft
TransAlt. 18000 ft.

Airport Communications:
APP:118.1
ATIS:125.175
CLNC DEL:138.8
DEP:118.1
GND:121.8
PMSV METRO:34.33
EAGLE CON:65.2
PTD:130.65
TWR:120.9

KHOP Zoom In..

Runways:

(A) RW 05 length 11822 ft width 200 ft
---- / hdg 45

(B) RW 18 length 4001 ft width 155 ft
---- / hdg 180

(C) RW 23 length 11822 ft width 200 ft
ILS 111.90 / hdg 225

(D) RW 36 length 4001 ft width 155 ft
---- / hdg 360

Location; KHOP
Day. 25 / Time. 10.30 Zulu
* Altimeter: 29.98
* Temperature: 10° c. 50°f.
* Wind from: 250° Speed 03 kn.
Dewpoint: 10° c.
Visibility: 3 Statute Miles.
Clouds: Overcast 400 ft.
Clouds: Overcast 00 ft.
Clouds: Broken 00 ft.
Conditions: Mist.

KHOP 251030Z AUTO 25003KT 3SM BR OVC004 10/10 A2998 RMK AO2 OVC V BKN SLP153


Wind From 250°
Speed 03 kn.

  YouTube Music Video
 
jpsmedia.com for Web Design  worldairports.se 2018   terms of use